»·PEaware :: N929X KBLH-KSAN

N929X :: KBLH-KSAN

FLIGHT INFORMATION

Flight Status: Arrived
Operator: Privately registered:
United States
More flights under this callsign
Pilot: Scott M. (16181)
Aircraft: Unknown
(EPIC)
More flights by this aircraft type
Origin: KBLH Blythe
United States
Destination: KSAN San Diego Intl-Lindbergh
United States
More flights between these airports :: More routes between these airports
Route: +
File this flight plan on PilotEdge
Remarks:
Altitude:
(Current/Filed)
8,500ft
Speed:
(Current/Filed)
174kts
Departed: 14-Dec-17 05:50 PM
Arrived: 14-Dec-17 06:41 PM
Distance/Time
Traveled:
135nm/0:50
Distance/Time
To Go:
Arrived

Flight Plot

Page will automatically refresh every two minutes.

Flight plan parsing failed; only flown route is shown


Map Options




Map Legend


Flown Route
Filed Route
Departure Airport
Arrival Airport
Navaid (VOR, NDB)
Fix

Horizontal Profiles

Position Reports

Time Latitude Longitude Heading Altitude Ground
Speed
14-Dec-17 17:40 33.614147 -114.714292 359 402ft 0kts
14-Dec-17 17:41 33.614147 -114.714292 359 402ft 0kts
14-Dec-17 17:42 33.614147 -114.714292 359 402ft 0kts
14-Dec-17 17:44 33.614147 -114.714292 359 402ft 0kts
14-Dec-17 17:45 33.614147 -114.714292 359 402ft 0kts
14-Dec-17 17:49 33.614147 -114.714292 359 402ft 0kts
14-Dec-17 17:50 33.614147 -114.714292 359 402ft 0kts
14-Dec-17 17:51 33.614148 -114.714292 359 402ft 0kts
14-Dec-17 17:52 33.614148 -114.714292 359 402ft 0kts
14-Dec-17 17:53 33.614148 -114.714292 359 402ft 0kts
14-Dec-17 17:54 33.614252 -114.714446 267 402ft 7kts
14-Dec-17 17:55 33.614364 -114.716706 339 402ft 15kts
14-Dec-17 17:56 33.637614 -114.718731 352 1229ft 133kts
14-Dec-17 17:57 33.626229 -114.748756 222 2974ft 150kts
14-Dec-17 17:58 33.603348 -114.783110 243 4263ft 177kts
14-Dec-17 17:59 33.581082 -114.833111 250 6003ft 187kts
14-Dec-17 18:00 33.559322 -114.891435 252 6577ft 199kts
14-Dec-17 18:01 33.538573 -114.950011 253 6581ft 186kts
14-Dec-17 18:02 33.518926 -115.006249 254 6581ft 182kts
14-Dec-17 18:03 33.499526 -115.061897 254 6573ft 181kts
14-Dec-17 18:04 33.479183 -115.120300 254 6482ft 196kts
14-Dec-17 18:05 33.458048 -115.180768 254 6482ft 199kts
14-Dec-17 18:06 33.436908 -115.241207 254 6479ft 195kts
14-Dec-17 18:07 33.417346 -115.296995 253 6473ft 192kts
14-Dec-17 18:08 33.396734 -115.355701 253 6470ft 192kts
14-Dec-17 18:09 33.380177 -115.402729 253 6465ft 196kts
14-Dec-17 18:10 33.359593 -115.461094 253 6461ft 187kts
14-Dec-17 18:11 33.339644 -115.517622 253 6470ft 187kts
14-Dec-17 18:12 33.319136 -115.575643 253 6477ft 192kts
14-Dec-17 18:13 33.298731 -115.633148 253 6502ft 191kts
14-Dec-17 18:14 33.281459 -115.681822 253 6507ft 178kts
14-Dec-17 18:15 33.273500 -115.704218 250 6450ft 178kts
14-Dec-17 18:16 33.256830 -115.751026 253 6508ft 183kts
14-Dec-17 18:17 33.236526 -115.808136 253 6503ft 189kts
14-Dec-17 18:18 33.216122 -115.865325 253 6502ft 188kts
14-Dec-17 18:19 33.195736 -115.922356 253 6502ft 187kts
14-Dec-17 18:20 33.175304 -115.979417 253 6501ft 187kts
14-Dec-17 18:21 33.154926 -116.036226 253 6501ft 187kts
14-Dec-17 18:22 33.135627 -116.089934 253 6498ft 187kts
14-Dec-17 18:23 33.115496 -116.145799 254 7464ft 187kts
14-Dec-17 18:24 33.094544 -116.204089 253 8494ft 209kts
14-Dec-17 18:25 33.072142 -116.266123 252 8500ft 202kts
14-Dec-17 18:26 33.049796 -116.327944 250 8504ft 210kts
14-Dec-17 18:27 33.026374 -116.392578 248 8505ft 216kts
14-Dec-17 18:28 33.002759 -116.457412 248 8501ft 205kts
14-Dec-17 18:29 32.981263 -116.516394 248 8495ft 189kts
14-Dec-17 18:30 32.960863 -116.572318 249 8496ft 183kts
14-Dec-17 18:31 32.940741 -116.627356 250 8487ft 181kts
14-Dec-17 18:32 32.921000 -116.681427 249 7871ft 186kts
14-Dec-17 18:33 32.895130 -116.732576 221 6879ft 188kts
14-Dec-17 18:34 32.859025 -116.770244 221 6460ft 146kts
14-Dec-17 18:35 32.823410 -116.805564 221 6468ft 183kts
14-Dec-17 18:36 32.784707 -116.842350 221 6459ft 173kts
14-Dec-17 18:37 32.748116 -116.876536 221 6289ft 168kts
14-Dec-17 18:38 32.711840 -116.910149 221 5481ft 165kts
14-Dec-17 18:39 32.688416 -116.949631 276 4669ft 147kts
14-Dec-17 18:40 32.690671 -116.991282 281 4469ft 110kts
14-Dec-17 18:41 32.693920 -117.024380 281 4265ft 98kts
14-Dec-17 18:42 32.699329 -117.055464 288 3712ft 113kts
14-Dec-17 18:43 32.707381 -117.084882 288 2784ft 103kts
14-Dec-17 18:44 32.714675 -117.111521 285 1841ft 96kts
14-Dec-17 18:45 32.721290 -117.138745 284 1143ft 90kts
14-Dec-17 18:46 32.728782 -117.169839 285 339ft 106kts
14-Dec-17 18:47 32.733788 -117.188091 1 17ft 11kts
14-Dec-17 18:48 32.733175 -117.183212 108 17ft 16kts
14-Dec-17 18:49 32.732750 -117.179757 54 20ft 10kts
14-Dec-17 18:50 32.733017 -117.179041 113 20ft 0kts
14-Dec-17 18:51 32.733018 -117.179042 113 20ft 0kts

Navigation Log

Ident Type
Flight plan parsing failed, navigation log unavailable